createdAt,value
2022-12-27T00:00:07.965Z,989.10
2022-12-27T00:01:07.924Z,989.08
2022-12-27T00:02:08.015Z,989.09
2022-12-27T00:03:07.939Z,989.14
2022-12-27T00:04:07.911Z,989.14
2022-12-27T00:05:07.884Z,989.11
2022-12-27T00:06:07.883Z,989.14
2022-12-27T00:07:07.856Z,989.14
2022-12-27T00:08:07.863Z,989.16
2022-12-27T00:09:07.849Z,989.13
2022-12-27T00:10:07.920Z,989.18
2022-12-27T00:11:07.813Z,989.13
2022-12-27T00:12:07.840Z,989.19
2022-12-27T00:13:07.805Z,989.16
2022-12-27T00:14:07.792Z,989.21
2022-12-27T00:15:07.786Z,989.19
2022-12-27T00:16:07.808Z,989.18
2022-12-27T00:17:07.731Z,989.23
2022-12-27T00:18:07.753Z,989.21
2022-12-27T00:19:07.713Z,989.27
2022-12-27T00:20:11.345Z,989.19
2022-12-27T00:21:07.690Z,989.25
2022-12-27T00:22:07.728Z,989.25
2022-12-27T00:23:07.678Z,989.28
2022-12-27T00:24:07.695Z,989.25
2022-12-27T00:25:07.714Z,989.30
2022-12-27T00:26:07.668Z,989.27
2022-12-27T00:27:07.633Z,989.28
2022-12-27T00:28:07.652Z,989.29
2022-12-27T00:29:07.603Z,989.31
2022-12-27T00:30:07.701Z,989.32
2022-12-27T00:31:07.582Z,989.29
2022-12-27T00:32:07.614Z,989.33
2022-12-27T00:33:07.570Z,989.29
2022-12-27T00:34:07.572Z,989.26
2022-12-27T00:35:07.561Z,989.27
2022-12-27T00:36:07.560Z,989.27
2022-12-27T00:37:07.505Z,989.27
2022-12-27T00:38:07.532Z,989.33
2022-12-27T00:39:07.497Z,989.34
2022-12-27T00:40:07.515Z,989.30
2022-12-27T00:41:07.490Z,989.29
2022-12-27T00:42:07.506Z,989.28
2022-12-27T00:43:07.460Z,989.32
2022-12-27T00:44:07.473Z,989.30
2022-12-27T00:45:07.418Z,989.31
2022-12-27T00:46:07.489Z,989.29
2022-12-27T00:47:07.419Z,989.34
2022-12-27T00:48:07.431Z,989.30
2022-12-27T00:49:07.402Z,989.33
2022-12-27T00:50:07.407Z,989.28
2022-12-27T00:51:07.378Z,989.36
2022-12-27T00:52:07.381Z,989.36
2022-12-27T00:53:07.325Z,989.35
2022-12-27T00:54:07.348Z,989.35
2022-12-27T00:55:07.332Z,989.35
2022-12-27T00:56:07.342Z,989.40
2022-12-27T00:57:07.312Z,989.39
2022-12-27T00:58:07.309Z,989.41
2022-12-27T00:59:07.287Z,989.42
2022-12-27T01:00:10.336Z,989.42
2022-12-27T01:01:07.290Z,989.34
2022-12-27T01:02:07.308Z,989.37
2022-12-27T01:03:07.241Z,989.43
2022-12-27T01:04:07.287Z,989.43
2022-12-27T01:05:07.197Z,989.43
2022-12-27T01:06:07.430Z,989.43
2022-12-27T01:07:07.201Z,989.44
2022-12-27T01:08:07.197Z,989.48
2022-12-27T01:09:07.163Z,989.47
2022-12-27T01:10:07.181Z,989.43
2022-12-27T01:11:07.133Z,989.40
2022-12-27T01:12:07.158Z,989.42
2022-12-27T01:13:07.135Z,989.42
2022-12-27T01:14:07.127Z,989.43
2022-12-27T01:15:07.124Z,989.40
2022-12-27T01:16:07.143Z,989.47
2022-12-27T01:17:07.080Z,989.46
2022-12-27T01:18:07.098Z,989.49
2022-12-27T01:19:07.068Z,989.50
2022-12-27T01:20:07.068Z,989.46
2022-12-27T01:21:07.016Z,989.46
2022-12-27T01:22:07.064Z,989.41
2022-12-27T01:23:06.996Z,989.45
2022-12-27T01:24:07.025Z,989.47
2022-12-27T01:25:06.987Z,989.48
2022-12-27T01:26:06.987Z,989.50
2022-12-27T01:27:06.953Z,989.53
2022-12-27T01:28:06.971Z,989.52
2022-12-27T01:29:06.963Z,989.51
2022-12-27T01:30:06.987Z,989.52
2022-12-27T01:31:06.991Z,989.46
2022-12-27T01:32:06.975Z,989.44
2022-12-27T01:33:06.887Z,989.44
2022-12-27T01:34:06.906Z,989.46
2022-12-27T01:35:06.866Z,989.51
2022-12-27T01:36:06.898Z,989.48
2022-12-27T01:37:06.844Z,989.51
2022-12-27T01:38:06.883Z,989.53
2022-12-27T01:39:06.823Z,989.56
2022-12-27T01:40:06.822Z,989.55
2022-12-27T01:41:06.810Z,989.57
2022-12-27T01:42:06.844Z,989.59
2022-12-27T01:43:06.803Z,989.56
2022-12-27T01:44:06.813Z,989.54
2022-12-27T01:45:06.802Z,989.56
2022-12-27T01:46:06.815Z,989.56
2022-12-27T01:47:06.735Z,989.56
2022-12-27T01:48:06.764Z,989.60
2022-12-27T01:49:06.721Z,989.63
2022-12-27T01:50:06.712Z,989.62
2022-12-27T01:51:06.686Z,989.63
2022-12-27T01:52:06.703Z,989.61
2022-12-27T01:53:06.676Z,989.60
2022-12-27T01:54:06.712Z,989.65
2022-12-27T01:55:06.680Z,989.66
2022-12-27T01:56:06.650Z,989.70
2022-12-27T01:57:06.631Z,989.68
2022-12-27T01:58:06.646Z,989.69
2022-12-27T01:59:06.619Z,989.73
2022-12-27T02:00:06.680Z,989.76
2022-12-27T02:01:06.626Z,989.79
2022-12-27T02:02:06.831Z,989.73
2022-12-27T02:03:06.658Z,989.71
2022-12-27T02:04:06.586Z,989.71
2022-12-27T02:05:06.565Z,989.72
2022-12-27T02:06:06.581Z,989.75
2022-12-27T02:07:06.515Z,989.81
2022-12-27T02:08:06.570Z,989.81
2022-12-27T02:09:06.491Z,989.74
2022-12-27T02:10:06.509Z,989.80
2022-12-27T02:11:06.475Z,989.81
2022-12-27T02:12:06.498Z,989.81
2022-12-27T02:13:06.505Z,989.81
2022-12-27T02:14:06.467Z,989.82
2022-12-27T02:15:06.413Z,989.79
2022-12-27T02:16:06.421Z,989.83
2022-12-27T02:17:06.513Z,989.82
2022-12-27T02:18:06.430Z,989.83
2022-12-27T02:19:06.401Z,989.87
2022-12-27T02:20:06.401Z,989.85
2022-12-27T02:21:06.372Z,989.88
2022-12-27T02:22:06.379Z,989.82
2022-12-27T02:23:06.328Z,989.83
2022-12-27T02:24:06.347Z,989.83
2022-12-27T02:25:06.339Z,989.83
2022-12-27T02:26:06.320Z,989.81
2022-12-27T02:27:06.286Z,989.82
2022-12-27T02:28:06.311Z,989.85
2022-12-27T02:29:06.291Z,989.79
2022-12-27T02:30:06.324Z,989.88
2022-12-27T02:31:06.328Z,989.86
2022-12-27T02:32:06.259Z,989.90
2022-12-27T02:33:06.227Z,989.93
2022-12-27T02:34:06.236Z,989.82
2022-12-27T02:35:06.225Z,989.82
2022-12-27T02:36:06.256Z,989.80
2022-12-27T02:37:06.197Z,989.79
2022-12-27T02:38:06.247Z,989.85
2022-12-27T02:39:06.205Z,989.84
2022-12-27T02:40:06.191Z,989.84
2022-12-27T02:41:06.137Z,989.90
2022-12-27T02:42:06.150Z,989.88
2022-12-27T02:43:06.157Z,989.89
2022-12-27T02:44:06.190Z,989.89
2022-12-27T02:45:06.119Z,989.85
2022-12-27T02:46:06.119Z,989.85
2022-12-27T02:47:06.066Z,989.82
2022-12-27T02:48:06.134Z,989.87
2022-12-27T02:49:06.083Z,989.85
2022-12-27T02:50:06.064Z,989.87
2022-12-27T02:51:06.014Z,989.85
2022-12-27T02:52:06.069Z,989.87
2022-12-27T02:53:06.015Z,989.89
2022-12-27T02:54:06.024Z,989.89
2022-12-27T02:55:05.985Z,989.93
2022-12-27T02:56:06.004Z,989.91
2022-12-27T02:57:06.001Z,989.90
2022-12-27T02:58:05.991Z,989.89
2022-12-27T02:59:05.967Z,989.85
2022-12-27T03:00:05.964Z,989.84
2022-12-27T03:01:05.994Z,989.86
2022-12-27T03:02:06.515Z,989.89
2022-12-27T03:03:05.925Z,989.88
2022-12-27T03:04:05.892Z,989.90
2022-12-27T03:05:05.863Z,989.96
2022-12-27T03:06:05.868Z,989.94
2022-12-27T03:07:05.938Z,989.99
2022-12-27T03:08:05.838Z,989.94
2022-12-27T03:09:05.830Z,989.96
2022-12-27T03:10:06.062Z,989.98
2022-12-27T03:11:05.795Z,989.96
2022-12-27T03:12:05.811Z,990.00
2022-12-27T03:13:05.776Z,990.00
2022-12-27T03:14:05.802Z,989.99
2022-12-27T03:15:05.765Z,990.02
2022-12-27T03:16:05.768Z,990.06
2022-12-27T03:17:05.733Z,990.05
2022-12-27T03:18:05.752Z,990.07
2022-12-27T03:19:05.704Z,990.08
2022-12-27T03:20:05.703Z,990.08
2022-12-27T03:21:05.671Z,990.10
2022-12-27T03:22:05.773Z,990.14
2022-12-27T03:23:05.654Z,990.17
2022-12-27T03:24:05.681Z,990.17
2022-12-27T03:25:05.648Z,990.10
2022-12-27T03:26:05.658Z,990.11
2022-12-27T03:27:05.608Z,990.13
2022-12-27T03:28:05.637Z,990.17
2022-12-27T03:29:05.611Z,990.13
2022-12-27T03:30:05.599Z,990.18
2022-12-27T03:31:05.600Z,990.19
2022-12-27T03:32:05.579Z,990.22
2022-12-27T03:33:05.545Z,990.22
2022-12-27T03:34:05.561Z,990.25
2022-12-27T03:35:05.510Z,990.22
2022-12-27T03:36:05.549Z,990.21
2022-12-27T03:37:05.508Z,990.21
2022-12-27T03:38:05.760Z,990.18
2022-12-27T03:39:05.508Z,990.21
2022-12-27T03:40:05.488Z,990.19
2022-12-27T03:41:05.470Z,990.23
2022-12-27T03:42:05.493Z,990.23
2022-12-27T03:43:05.428Z,990.21
2022-12-27T03:44:05.448Z,990.18
2022-12-27T03:45:05.401Z,990.14
2022-12-27T03:46:05.540Z,990.12
2022-12-27T03:47:05.385Z,990.13
2022-12-27T03:48:05.409Z,990.19
2022-12-27T03:49:05.408Z,990.18
2022-12-27T03:50:05.367Z,990.18
2022-12-27T03:51:05.495Z,990.19
2022-12-27T03:52:05.356Z,990.19
2022-12-27T03:53:05.320Z,990.21
2022-12-27T03:54:05.350Z,990.17
2022-12-27T03:55:05.295Z,990.19
2022-12-27T03:56:05.339Z,990.16
2022-12-27T03:57:05.317Z,990.14
2022-12-27T03:58:05.267Z,990.11
2022-12-27T03:59:05.265Z,990.11
2022-12-27T04:00:05.280Z,990.09
2022-12-27T04:01:05.275Z,990.14
2022-12-27T04:02:05.399Z,990.16
2022-12-27T04:03:05.224Z,990.16
2022-12-27T04:04:05.245Z,990.17
2022-12-27T04:05:05.184Z,990.11
2022-12-27T04:06:05.240Z,990.07
2022-12-27T04:07:05.175Z,990.09
2022-12-27T04:08:05.176Z,990.12
2022-12-27T04:09:05.155Z,990.12
2022-12-27T04:10:05.174Z,990.12
2022-12-27T04:11:05.112Z,990.12
2022-12-27T04:12:05.131Z,990.14
2022-12-27T04:13:05.138Z,990.18
2022-12-27T04:14:05.130Z,990.22
2022-12-27T04:15:05.083Z,990.13
2022-12-27T04:16:05.099Z,990.24
2022-12-27T04:17:05.080Z,990.20
2022-12-27T04:18:05.065Z,990.16
2022-12-27T04:19:05.064Z,990.17
2022-12-27T04:20:05.029Z,990.14
2022-12-27T04:21:05.069Z,990.14
2022-12-27T04:22:04.988Z,990.09
2022-12-27T04:23:05.137Z,990.16
2022-12-27T04:24:04.966Z,990.05
2022-12-27T04:25:04.984Z,990.14
2022-12-27T04:26:04.999Z,990.13
2022-12-27T04:27:04.952Z,990.02
2022-12-27T04:28:04.917Z,990.10
2022-12-27T04:29:04.951Z,990.09
2022-12-27T04:30:04.931Z,990.17
2022-12-27T04:31:04.935Z,990.13
2022-12-27T04:32:04.884Z,990.11
2022-12-27T04:33:04.863Z,990.17
2022-12-27T04:34:04.837Z,990.14
2022-12-27T04:35:04.874Z,990.09
2022-12-27T04:36:06.604Z,990.11
2022-12-27T04:37:04.858Z,990.17
2022-12-27T04:38:04.799Z,990.17
2022-12-27T04:39:04.822Z,990.17
2022-12-27T04:40:04.781Z,990.15
2022-12-27T04:41:04.784Z,990.16
2022-12-27T04:42:04.783Z,990.16
2022-12-27T04:43:04.787Z,990.15
2022-12-27T04:44:04.733Z,990.20
2022-12-27T04:45:06.861Z,990.18
2022-12-27T04:46:04.755Z,990.15
2022-12-27T04:47:04.713Z,990.16
2022-12-27T04:48:04.702Z,990.15
2022-12-27T04:49:04.780Z,990.24
2022-12-27T04:50:04.709Z,990.23
2022-12-27T04:51:04.673Z,990.20
2022-12-27T04:52:04.644Z,990.21
2022-12-27T04:53:04.657Z,990.24
2022-12-27T04:54:04.655Z,990.24
2022-12-27T04:55:04.630Z,990.23
2022-12-27T04:56:04.609Z,990.22
2022-12-27T04:57:04.619Z,990.23
2022-12-27T04:58:04.579Z,990.25
2022-12-27T04:59:04.589Z,990.21
2022-12-27T05:00:04.553Z,990.24
2022-12-27T05:01:07.866Z,990.19
2022-12-27T05:02:05.766Z,990.20
2022-12-27T05:03:04.630Z,990.19
2022-12-27T05:04:04.499Z,990.13
2022-12-27T05:05:04.528Z,990.20
2022-12-27T05:06:04.497Z,990.25
2022-12-27T05:07:04.508Z,990.21
2022-12-27T05:08:04.461Z,990.17
2022-12-27T05:09:04.479Z,990.21
2022-12-27T05:10:04.433Z,990.24
2022-12-27T05:11:04.449Z,990.26
2022-12-27T05:12:04.415Z,990.24
2022-12-27T05:13:04.433Z,990.25
2022-12-27T05:14:04.397Z,990.30
2022-12-27T05:15:04.435Z,990.27
2022-12-27T05:16:04.397Z,990.29
2022-12-27T05:17:04.370Z,990.32
2022-12-27T05:18:04.367Z,990.34
2022-12-27T05:19:04.396Z,990.35
2022-12-27T05:20:04.333Z,990.35
2022-12-27T05:21:04.346Z,990.35
2022-12-27T05:22:04.303Z,990.32
2022-12-27T05:23:04.328Z,990.35
2022-12-27T05:24:05.759Z,990.33
2022-12-27T05:25:04.319Z,990.38
2022-12-27T05:26:04.259Z,990.37
2022-12-27T05:27:04.269Z,990.36
2022-12-27T05:28:04.240Z,990.39
2022-12-27T05:29:04.237Z,990.34
2022-12-27T05:30:04.221Z,990.38
2022-12-27T05:31:04.263Z,990.40
2022-12-27T05:32:08.047Z,990.46
2022-12-27T05:33:05.184Z,990.48
2022-12-27T05:34:04.155Z,990.46
2022-12-27T05:35:11.268Z,990.44
2022-12-27T05:36:11.229Z,990.45
2022-12-27T05:37:04.139Z,990.47
2022-12-27T05:38:04.131Z,990.42
2022-12-27T05:39:04.124Z,990.42
2022-12-27T05:40:04.095Z,990.43
2022-12-27T05:41:04.109Z,990.41
2022-12-27T05:42:04.101Z,990.42
2022-12-27T05:43:04.071Z,990.41
2022-12-27T05:44:07.402Z,990.37
2022-12-27T05:45:04.063Z,990.35
2022-12-27T05:46:04.043Z,990.39
2022-12-27T05:47:04.150Z,990.36
2022-12-27T05:48:04.008Z,990.40
2022-12-27T05:49:04.055Z,990.39
2022-12-27T05:50:04.020Z,990.44
2022-12-27T05:51:04.026Z,990.45
2022-12-27T05:52:03.958Z,990.48
2022-12-27T05:53:04.072Z,990.50
2022-12-27T05:54:03.997Z,990.53
2022-12-27T05:55:03.971Z,990.49
2022-12-27T05:56:03.968Z,990.53
2022-12-27T05:57:03.938Z,990.56
2022-12-27T05:58:03.922Z,990.56
2022-12-27T05:59:03.952Z,990.56
2022-12-27T06:00:03.884Z,990.57
2022-12-27T06:01:03.909Z,990.57
2022-12-27T06:02:03.987Z,990.55
2022-12-27T06:03:04.048Z,990.59
2022-12-27T06:04:03.827Z,990.57
2022-12-27T06:05:03.856Z,990.60
2022-12-27T06:06:03.811Z,990.55
2022-12-27T06:07:03.801Z,990.60
2022-12-27T06:08:04.027Z,990.62
2022-12-27T06:09:03.782Z,990.62
2022-12-27T06:10:03.782Z,990.64
2022-12-27T06:11:03.777Z,990.58
2022-12-27T06:12:03.737Z,990.65
2022-12-27T06:13:03.749Z,990.61
2022-12-27T06:14:03.709Z,990.64
2022-12-27T06:15:03.718Z,990.62
2022-12-27T06:16:03.742Z,990.63
2022-12-27T06:17:03.696Z,990.66
2022-12-27T06:18:03.716Z,990.68
2022-12-27T06:19:03.683Z,990.73
2022-12-27T06:20:03.639Z,990.68
2022-12-27T06:21:03.649Z,990.73
2022-12-27T06:22:03.615Z,990.75
2022-12-27T06:23:03.674Z,990.68
2022-12-27T06:24:03.606Z,990.76
2022-12-27T06:25:03.605Z,990.73
2022-12-27T06:26:03.575Z,990.69
2022-12-27T06:27:03.604Z,990.76
2022-12-27T06:28:03.543Z,990.73
2022-12-27T06:29:03.580Z,990.71
2022-12-27T06:30:03.533Z,990.73
2022-12-27T06:31:03.549Z,990.71
2022-12-27T06:32:03.543Z,990.70
2022-12-27T06:33:03.543Z,990.74
2022-12-27T06:34:03.482Z,990.78
2022-12-27T06:35:03.501Z,990.76
2022-12-27T06:36:03.471Z,990.79
2022-12-27T06:37:03.484Z,990.74
2022-12-27T06:38:03.423Z,990.70
2022-12-27T06:39:03.448Z,990.75
2022-12-27T06:40:03.466Z,990.74
2022-12-27T06:41:03.427Z,990.79
2022-12-27T06:42:03.403Z,990.81
2022-12-27T06:43:03.393Z,990.86
2022-12-27T06:44:03.392Z,990.84
2022-12-27T06:45:03.378Z,990.82
2022-12-27T06:46:03.377Z,990.84
2022-12-27T06:47:03.406Z,990.82
2022-12-27T06:48:03.314Z,990.83
2022-12-27T06:49:03.354Z,990.86
2022-12-27T06:50:03.293Z,990.86
2022-12-27T06:51:03.309Z,990.86
2022-12-27T06:52:03.291Z,990.83
2022-12-27T06:53:03.289Z,990.92
2022-12-27T06:54:03.293Z,990.90
2022-12-27T06:55:03.257Z,990.93
2022-12-27T06:56:03.272Z,990.92
2022-12-27T06:57:03.253Z,990.98
2022-12-27T06:58:03.216Z,990.97
2022-12-27T06:59:03.254Z,990.96
2022-12-27T07:00:03.222Z,990.99
2022-12-27T07:01:03.312Z,991.00
2022-12-27T07:02:03.365Z,991.08
2022-12-27T07:03:03.302Z,991.09
2022-12-27T07:04:03.140Z,991.13
2022-12-27T07:05:03.193Z,991.16
2022-12-27T07:06:03.146Z,991.15
2022-12-27T07:07:03.249Z,991.19
2022-12-27T07:08:03.106Z,991.12
2022-12-27T07:09:03.161Z,991.18
2022-12-27T07:10:03.086Z,991.16
2022-12-27T07:11:03.161Z,991.19
2022-12-27T07:12:03.091Z,991.19
2022-12-27T07:13:03.084Z,991.17
2022-12-27T07:14:03.055Z,991.19
2022-12-27T07:15:03.088Z,991.18
2022-12-27T07:16:03.082Z,991.23
2022-12-27T07:17:03.067Z,991.23
2022-12-27T07:18:02.990Z,991.27
2022-12-27T07:19:03.053Z,991.20
2022-12-27T07:20:03.059Z,991.32
2022-12-27T07:21:02.969Z,991.29
2022-12-27T07:22:02.939Z,991.28
2022-12-27T07:23:02.999Z,991.24
2022-12-27T07:24:02.934Z,991.29
2022-12-27T07:25:02.942Z,991.29
2022-12-27T07:26:02.905Z,991.27
2022-12-27T07:27:02.937Z,991.33
2022-12-27T07:28:02.957Z,991.28
2022-12-27T07:29:04.660Z,991.32
2022-12-27T07:30:02.893Z,991.34
2022-12-27T07:31:02.854Z,991.34
2022-12-27T07:32:02.871Z,991.36
2022-12-27T07:33:02.827Z,991.41
2022-12-27T07:34:02.793Z,991.35
2022-12-27T07:35:02.863Z,991.41
2022-12-27T07:36:02.779Z,991.38
2022-12-27T07:37:02.780Z,991.39
2022-12-27T07:38:02.748Z,991.40
2022-12-27T07:39:02.790Z,991.40
2022-12-27T07:40:02.732Z,991.43
2022-12-27T07:41:02.754Z,991.38
2022-12-27T07:42:07.889Z,991.42
2022-12-27T07:43:03.727Z,991.44
2022-12-27T07:44:02.683Z,991.44
2022-12-27T07:45:02.719Z,991.45
2022-12-27T07:46:02.715Z,991.50
2022-12-27T07:47:02.989Z,991.48
2022-12-27T07:48:02.650Z,991.53
2022-12-27T07:49:02.662Z,991.51
2022-12-27T07:50:02.627Z,991.54
2022-12-27T07:51:02.647Z,991.51
2022-12-27T07:52:02.592Z,991.53
2022-12-27T07:53:02.636Z,991.50
2022-12-27T07:54:02.584Z,991.53
2022-12-27T07:55:02.607Z,991.59
2022-12-27T07:56:02.545Z,991.55
2022-12-27T07:57:02.599Z,991.60
2022-12-27T07:58:02.525Z,991.54
2022-12-27T07:59:02.560Z,991.54
2022-12-27T08:00:02.513Z,991.52
2022-12-27T08:01:02.553Z,991.53
2022-12-27T08:02:02.593Z,991.57
2022-12-27T08:03:02.538Z,991.57
2022-12-27T08:04:02.469Z,991.55
2022-12-27T08:05:02.491Z,991.48
2022-12-27T08:06:02.456Z,991.49
2022-12-27T08:07:02.594Z,991.47
2022-12-27T08:08:02.432Z,991.48
2022-12-27T08:09:02.424Z,991.47
2022-12-27T08:10:02.410Z,991.51
2022-12-27T08:11:05.731Z,991.53
2022-12-27T08:12:02.414Z,991.55
2022-12-27T08:13:02.409Z,991.56
2022-12-27T08:14:02.380Z,991.51
2022-12-27T08:15:02.354Z,991.56
2022-12-27T08:16:02.313Z,991.61
2022-12-27T08:17:02.382Z,991.59
2022-12-27T08:18:02.343Z,991.55
2022-12-27T08:19:08.191Z,991.59
2022-12-27T08:20:03.285Z,991.62
2022-12-27T08:21:02.300Z,991.59
2022-12-27T08:22:02.268Z,991.61
2022-12-27T08:23:02.287Z,991.63
2022-12-27T08:24:02.367Z,991.59
2022-12-27T08:25:02.256Z,991.53
2022-12-27T08:26:02.254Z,991.60
2022-12-27T08:27:02.183Z,991.64
2022-12-27T08:28:02.212Z,991.63
2022-12-27T08:29:02.531Z,991.63
2022-12-27T08:30:02.210Z,991.63
2022-12-27T08:31:02.220Z,991.69
2022-12-27T08:32:02.161Z,991.69
2022-12-27T08:33:02.128Z,991.71
2022-12-27T08:34:02.153Z,991.73
2022-12-27T08:35:25.215Z,991.69
2022-12-27T08:36:15.733Z,991.73
2022-12-27T08:37:03.083Z,991.73
2022-12-27T08:38:02.116Z,991.71
2022-12-27T08:39:02.105Z,991.70
2022-12-27T08:40:03.223Z,991.70
2022-12-27T08:41:02.054Z,991.72
2022-12-27T08:42:02.086Z,991.73
2022-12-27T08:43:02.040Z,991.71
2022-12-27T08:44:02.049Z,991.65
2022-12-27T08:45:02.000Z,991.71
2022-12-27T08:46:02.037Z,991.74
2022-12-27T08:47:02.025Z,991.70
2022-12-27T08:48:02.049Z,991.69
2022-12-27T08:49:01.961Z,991.71
2022-12-27T08:50:01.985Z,991.74
2022-12-27T08:51:05.955Z,991.75
2022-12-27T08:52:02.957Z,991.75
2022-12-27T08:53:01.938Z,991.78
2022-12-27T08:54:01.922Z,991.76
2022-12-27T08:55:01.896Z,991.76
2022-12-27T08:56:01.921Z,991.77
2022-12-27T08:57:01.879Z,991.77
2022-12-27T08:58:01.882Z,991.79
2022-12-27T08:59:01.886Z,991.84
2022-12-27T09:00:01.865Z,991.86
2022-12-27T09:01:01.854Z,991.89
2022-12-27T09:02:01.973Z,991.91
2022-12-27T09:03:01.820Z,991.92
2022-12-27T09:04:01.815Z,991.95
2022-12-27T09:05:01.811Z,991.93
2022-12-27T09:06:01.789Z,991.94
2022-12-27T09:07:01.750Z,991.94
2022-12-27T09:08:01.778Z,991.97
2022-12-27T09:09:02.630Z,991.93
2022-12-27T09:10:01.802Z,992.02
2022-12-27T09:11:01.719Z,992.02
2022-12-27T09:12:04.256Z,991.95
2022-12-27T09:13:02.695Z,991.94
2022-12-27T09:14:01.848Z,992.00
2022-12-27T09:15:01.668Z,991.96
2022-12-27T09:16:01.711Z,991.97
2022-12-27T09:17:01.672Z,992.00
2022-12-27T09:18:01.681Z,992.05
2022-12-27T09:19:01.627Z,992.03
2022-12-27T09:20:01.647Z,992.02
2022-12-27T09:21:01.609Z,992.04
2022-12-27T09:22:01.624Z,992.02
2022-12-27T09:23:01.585Z,992.06
2022-12-27T09:24:01.588Z,992.09
2022-12-27T09:25:01.628Z,992.10
2022-12-27T09:26:01.561Z,992.14
2022-12-27T09:27:01.557Z,992.10
2022-12-27T09:28:01.573Z,992.07
2022-12-27T09:29:01.516Z,992.07
2022-12-27T09:30:01.544Z,992.10
2022-12-27T09:31:01.522Z,992.09
2022-12-27T09:32:01.508Z,992.12
2022-12-27T09:33:01.481Z,992.07
2022-12-27T09:34:01.488Z,992.13
2022-12-27T09:35:01.499Z,992.11
2022-12-27T09:36:01.455Z,992.15
2022-12-27T09:37:01.429Z,992.12
2022-12-27T09:38:01.470Z,992.13
2022-12-27T09:39:01.434Z,992.12
2022-12-27T09:40:01.428Z,992.16
2022-12-27T09:41:01.412Z,992.16
2022-12-27T09:43:15.424Z,992.17
2022-12-27T09:44:02.381Z,992.20
2022-12-27T09:45:01.350Z,992.16
2022-12-27T09:46:01.369Z,992.20
2022-12-27T09:47:01.316Z,992.25
2022-12-27T09:48:01.328Z,992.23
2022-12-27T09:49:01.296Z,992.28
2022-12-27T09:50:01.294Z,992.26
2022-12-27T09:51:01.259Z,992.22
2022-12-27T09:52:01.290Z,992.26
2022-12-27T09:53:01.251Z,992.31
2022-12-27T09:54:01.289Z,992.30
2022-12-27T09:55:05.111Z,992.25
2022-12-27T09:56:01.237Z,992.21
2022-12-27T09:57:19.371Z,992.25
2022-12-27T09:58:02.247Z,992.23
2022-12-27T09:59:01.186Z,992.21
2022-12-27T10:00:01.176Z,992.19
2022-12-27T10:01:01.165Z,992.16
2022-12-27T10:02:01.228Z,992.16
2022-12-27T10:03:01.176Z,992.17
2022-12-27T10:04:01.175Z,992.17
2022-12-27T10:06:02.201Z,992.17
2022-12-27T10:07:01.146Z,992.15
2022-12-27T10:08:01.114Z,992.13
2022-12-27T10:09:01.062Z,992.15
2022-12-27T10:10:01.192Z,992.10
2022-12-27T10:11:01.127Z,992.12
2022-12-27T10:12:01.076Z,992.13
2022-12-27T10:13:00.992Z,992.11
2022-12-27T10:14:01.053Z,992.14
2022-12-27T10:15:00.999Z,992.09
2022-12-27T10:16:01.094Z,992.09
2022-12-27T10:17:01.001Z,992.07
2022-12-27T10:18:00.974Z,992.04
2022-12-27T10:19:00.979Z,992.01
2022-12-27T10:20:00.986Z,992.00
2022-12-27T10:21:00.964Z,992.01
2022-12-27T10:22:00.912Z,992.01
2022-12-27T10:23:06.021Z,992.00
2022-12-27T10:24:01.914Z,991.96
2022-12-27T10:25:00.863Z,991.92
2022-12-27T10:26:00.885Z,991.98
2022-12-27T10:27:00.838Z,991.96
2022-12-27T10:28:00.878Z,991.95
2022-12-27T10:29:00.827Z,991.94
2022-12-27T10:30:00.845Z,991.95
2022-12-27T10:31:00.819Z,991.94
2022-12-27T10:32:00.940Z,991.95
2022-12-27T10:33:00.771Z,991.98
2022-12-27T10:34:00.785Z,991.94
2022-12-27T10:35:00.763Z,991.96
2022-12-27T10:36:00.763Z,991.94
2022-12-27T10:37:00.726Z,991.92
2022-12-27T10:38:00.739Z,991.93
2022-12-27T10:39:00.705Z,991.93
2022-12-27T10:40:00.732Z,991.91
2022-12-27T10:41:00.680Z,991.85
2022-12-27T10:42:00.694Z,991.84
2022-12-27T10:43:00.650Z,991.85
2022-12-27T10:44:00.688Z,991.87
2022-12-27T10:45:00.632Z,991.85
2022-12-27T10:46:00.641Z,991.85
2022-12-27T10:47:00.700Z,991.87
2022-12-27T10:48:00.631Z,991.83
2022-12-27T10:50:01.622Z,991.86
2022-12-27T10:51:00.563Z,991.84
2022-12-27T10:52:00.574Z,991.90
2022-12-27T10:53:00.584Z,991.90
2022-12-27T10:54:00.570Z,991.93
2022-12-27T10:55:00.540Z,991.88
2022-12-27T10:56:00.530Z,991.91
2022-12-27T10:57:00.499Z,991.87
2022-12-27T10:58:00.517Z,991.82
2022-12-27T10:59:00.511Z,991.85
2022-12-27T11:00:00.515Z,991.82
2022-12-27T11:01:00.561Z,991.80
2022-12-27T11:02:00.863Z,991.80
2022-12-27T11:03:00.454Z,991.79
2022-12-27T11:04:00.440Z,991.80
2022-12-27T11:05:00.443Z,991.81
2022-12-27T11:06:00.435Z,991.86
2022-12-27T11:07:00.369Z,991.84
2022-12-27T11:08:00.386Z,991.83
2022-12-27T11:09:00.356Z,991.87
2022-12-27T11:10:00.607Z,991.86
2022-12-27T11:11:00.351Z,991.82
2022-12-27T11:12:00.720Z,991.89
2022-12-27T11:13:00.303Z,991.84
2022-12-27T11:14:00.328Z,991.86
2022-12-27T11:15:00.357Z,991.90
2022-12-27T11:16:00.447Z,991.89
2022-12-27T11:17:00.278Z,991.90
2022-12-27T11:18:00.283Z,991.94
2022-12-27T11:19:00.230Z,991.91
2022-12-27T11:20:00.253Z,991.88
2022-12-27T11:21:00.219Z,991.92
2022-12-27T11:22:00.228Z,991.86
2022-12-27T11:23:00.208Z,991.93
2022-12-27T11:24:00.227Z,991.94
2022-12-27T11:25:00.155Z,991.98
2022-12-27T11:26:00.210Z,991.97
2022-12-27T11:27:00.158Z,992.01
2022-12-27T11:28:00.247Z,991.99
2022-12-27T11:29:00.139Z,991.95
2022-12-27T11:30:00.180Z,991.98
2022-12-27T11:31:00.258Z,991.98
2022-12-27T11:32:00.897Z,992.04
2022-12-27T11:33:00.122Z,992.01
2022-12-27T11:34:00.147Z,991.98
2022-12-27T11:35:00.113Z,991.95
2022-12-27T11:36:00.104Z,991.98
2022-12-27T11:37:00.044Z,991.95
2022-12-27T11:38:00.113Z,991.96
2022-12-27T11:39:00.018Z,991.93
2022-12-27T11:40:00.042Z,991.98
2022-12-27T11:41:00.021Z,991.98
2022-12-27T11:42:00.015Z,991.98
2022-12-27T11:42:59.998Z,992.01
2022-12-27T11:43:59.991Z,991.98
2022-12-27T11:44:59.954Z,991.98
2022-12-27T11:45:59.984Z,992.02
2022-12-27T11:47:00.043Z,992.01
2022-12-27T11:47:59.934Z,991.98
2022-12-27T11:48:59.896Z,991.95
2022-12-27T11:49:59.906Z,992.02
2022-12-27T11:50:59.867Z,992.03
2022-12-27T11:51:59.904Z,992.01
2022-12-27T11:52:59.865Z,992.03
2022-12-27T11:53:59.876Z,992.10
2022-12-27T11:54:59.885Z,992.00
2022-12-27T11:55:59.829Z,992.03
2022-12-27T11:56:59.794Z,992.08
2022-12-27T11:57:59.861Z,992.02
2022-12-27T11:58:59.823Z,991.96
2022-12-27T11:59:59.807Z,991.99
2022-12-27T12:01:05.318Z,992.03
2022-12-27T12:02:00.968Z,992.03
2022-12-27T12:02:59.908Z,992.02
2022-12-27T12:03:59.748Z,992.10
2022-12-27T12:04:59.714Z,992.10
2022-12-27T12:05:59.729Z,992.08
2022-12-27T12:06:59.696Z,992.12
2022-12-27T12:07:59.706Z,992.07
2022-12-27T12:08:59.673Z,992.02
2022-12-27T12:09:59.783Z,992.05
2022-12-27T12:10:59.658Z,991.99
2022-12-27T12:11:59.658Z,991.98
2022-12-27T12:12:59.919Z,991.97
2022-12-27T12:13:59.639Z,991.99
2022-12-27T12:14:59.615Z,991.93
2022-12-27T12:15:59.723Z,991.92
2022-12-27T12:16:59.618Z,991.92
2022-12-27T12:17:59.593Z,991.85
2022-12-27T12:18:59.554Z,991.88
2022-12-27T12:19:59.557Z,991.82
2022-12-27T12:20:59.555Z,991.81
2022-12-27T12:21:59.614Z,991.78
2022-12-27T12:22:59.518Z,991.82
2022-12-27T12:23:59.573Z,991.78
2022-12-27T12:24:59.495Z,991.79
2022-12-27T12:25:59.488Z,991.80
2022-12-27T12:26:59.465Z,991.78
2022-12-27T12:27:59.487Z,991.79
2022-12-27T12:29:00.406Z,991.79
2022-12-27T12:29:59.449Z,991.76
2022-12-27T12:30:59.404Z,991.76